sensor_id;sensor_type;location;lat;lon;timestamp;pressure;altitude;pressure_sealevel;temperature;humidity
58947;BME280;44724;52.332;4.978;2022-08-21T00:01:03;101758.47;;;16.15;100.00
58947;BME280;44724;52.332;4.978;2022-08-21T00:03:31;101770.75;;;16.14;100.00
58947;BME280;44724;52.332;4.978;2022-08-21T00:05:57;101768.59;;;16.11;100.00
58947;BME280;44724;52.332;4.978;2022-08-21T00:08:22;101769.22;;;16.08;100.00
58947;BME280;44724;52.332;4.978;2022-08-21T00:10:48;101757.53;;;16.06;100.00
58947;BME280;44724;52.332;4.978;2022-08-21T00:13:15;101768.69;;;16.06;100.00
58947;BME280;44724;52.332;4.978;2022-08-21T00:15:40;101760.59;;;16.05;100.00
58947;BME280;44724;52.332;4.978;2022-08-21T00:18:08;101749.44;;;16.05;100.00
58947;BME280;44724;52.332;4.978;2022-08-21T00:20:34;101749.22;;;16.01;100.00
58947;BME280;44724;52.332;4.978;2022-08-21T00:23:00;101750.66;;;15.99;100.00
58947;BME280;44724;52.332;4.978;2022-08-21T00:25:27;101748.72;;;15.99;100.00
58947;BME280;44724;52.332;4.978;2022-08-21T00:27:53;101749.22;;;16.01;100.00
58947;BME280;44724;52.332;4.978;2022-08-21T00:30:20;101758.72;;;16.00;100.00
58947;BME280;44724;52.332;4.978;2022-08-21T00:32:46;101759.56;;;16.01;100.00
58947;BME280;44724;52.332;4.978;2022-08-21T00:35:15;101758.63;;;16.05;100.00
58947;BME280;44724;52.332;4.978;2022-08-21T00:37:41;101747.47;;;16.05;100.00
58947;BME280;44724;52.332;4.978;2022-08-21T00:40:10;101752.25;;;16.05;100.00
58947;BME280;44724;52.332;4.978;2022-08-21T00:42:37;101741.38;;;16.03;100.00
58947;BME280;44724;52.332;4.978;2022-08-21T00:45:03;101750.03;;;16.02;100.00
58947;BME280;44724;52.332;4.978;2022-08-21T00:47:29;101763.69;;;16.03;100.00
58947;BME280;44724;52.332;4.978;2022-08-21T00:49:54;101754.22;;;16.04;100.00
58947;BME280;44724;52.332;4.978;2022-08-21T00:52:24;101761.44;;;16.05;100.00
58947;BME280;44724;52.332;4.978;2022-08-21T00:54:50;101763.69;;;16.03;100.00
58947;BME280;44724;52.332;4.978;2022-08-21T00:57:21;101758.34;;;16.07;100.00
58947;BME280;44724;52.332;4.978;2022-08-21T00:59:51;101753.78;;;16.11;100.00
58947;BME280;44724;52.332;4.978;2022-08-21T01:02:18;101751.22;;;16.14;100.00
58947;BME280;44724;52.332;4.978;2022-08-21T01:04:45;101752.38;;;16.13;100.00
58947;BME280;44724;52.332;4.978;2022-08-21T01:07:11;101759.06;;;16.12;100.00
58947;BME280;44724;52.332;4.978;2022-08-21T01:09:38;101757.97;;;16.13;100.00
58947;BME280;44724;52.332;4.978;2022-08-21T01:12:05;101750.69;;;16.12;100.00
58947;BME280;44724;52.332;4.978;2022-08-21T01:14:31;101757.66;;;16.15;100.00
58947;BME280;44724;52.332;4.978;2022-08-21T01:16:58;101758.78;;;16.14;100.00
58947;BME280;44724;52.332;4.978;2022-08-21T01:19:24;101759.59;;;16.14;100.00
58947;BME280;44724;52.332;4.978;2022-08-21T01:21:51;101763.53;;;16.13;100.00
58947;BME280;44724;52.332;4.978;2022-08-21T01:24:17;101765.19;;;16.14;100.00
58947;BME280;44724;52.332;4.978;2022-08-21T01:26:43;101762.09;;;16.16;100.00
58947;BME280;44724;52.332;4.978;2022-08-21T01:32:05;101804.53;;;15.99;100.00
58947;BME280;44724;52.332;4.978;2022-08-21T01:34:32;101798.41;;;15.97;100.00
58947;BME280;44724;52.332;4.978;2022-08-21T01:36:57;101785.00;;;15.99;100.00
58947;BME280;44724;52.332;4.978;2022-08-21T01:39:24;101775.91;;;16.07;100.00
58947;BME280;44724;52.332;4.978;2022-08-21T01:41:49;101784.81;;;16.09;100.00
58947;BME280;44724;52.332;4.978;2022-08-21T01:44:15;101772.22;;;16.12;100.00
58947;BME280;44724;52.332;4.978;2022-08-21T01:46:40;101773.03;;;16.12;100.00
58947;BME280;44724;52.332;4.978;2022-08-21T01:49:06;101764.13;;;16.10;100.00
58947;BME280;44724;52.332;4.978;2022-08-21T01:51:31;101761.06;;;16.12;100.00
58947;BME280;44724;52.332;4.978;2022-08-21T01:53:57;101761.06;;;16.12;100.00
58947;BME280;44724;52.332;4.978;2022-08-21T01:56:23;101773.63;;;16.09;100.00
58947;BME280;44724;52.332;4.978;2022-08-21T01:58:49;101765.59;;;16.08;100.00
58947;BME280;44724;52.332;4.978;2022-08-21T02:01:15;101764.53;;;16.04;100.00
58947;BME280;44724;52.332;4.978;2022-08-21T02:03:41;101757.91;;;16.00;100.00
58947;BME280;44724;52.332;4.978;2022-08-21T02:06:07;101758.19;;;15.98;100.00
58947;BME280;44724;52.332;4.978;2022-08-21T02:08:33;101752.09;;;15.96;100.00
58947;BME280;44724;52.332;4.978;2022-08-21T02:10:59;101756.84;;;15.95;100.00
58947;BME280;44724;52.332;4.978;2022-08-21T02:13:25;101750.72;;;15.93;100.00
58947;BME280;44724;52.332;4.978;2022-08-21T02:15:51;101754.16;;;15.90;100.00
58947;BME280;44724;52.332;4.978;2022-08-21T02:18:16;101744.94;;;15.90;100.00
58947;BME280;44724;52.332;4.978;2022-08-21T02:20:45;101742.75;;;15.87;100.00
58947;BME280;44724;52.332;4.978;2022-08-21T02:23:12;101745.03;;;15.85;100.00
58947;BME280;44724;52.332;4.978;2022-08-21T02:25:39;101746.75;;;15.81;100.00
58947;BME280;44724;52.332;4.978;2022-08-21T02:28:13;101754.91;;;15.77;100.00
58947;BME280;44724;52.332;4.978;2022-08-21T02:30:45;101758.53;;;15.77;100.00
58947;BME280;44724;52.332;4.978;2022-08-21T02:33:12;101762.44;;;15.76;100.00
58947;BME280;44724;52.332;4.978;2022-08-21T02:35:39;101761.34;;;15.77;100.00
58947;BME280;44724;52.332;4.978;2022-08-21T02:38:09;101764.13;;;15.77;100.00
58947;BME280;44724;52.332;4.978;2022-08-21T02:40:37;101763.00;;;15.73;100.00
58947;BME280;44724;52.332;4.978;2022-08-21T02:43:04;101766.41;;;15.70;100.00
58947;BME280;44724;52.332;4.978;2022-08-21T02:45:30;101750.81;;;15.69;100.00
58947;BME280;44724;52.332;4.978;2022-08-21T02:47:59;101747.19;;;15.69;100.00
58947;BME280;44724;52.332;4.978;2022-08-21T02:50:36;101748.09;;;15.64;100.00
58947;BME280;44724;52.332;4.978;2022-08-21T02:53:02;101757.06;;;15.61;100.00
58947;BME280;44724;52.332;4.978;2022-08-21T02:55:30;101762.41;;;15.57;100.00
58947;BME280;44724;52.332;4.978;2022-08-21T02:57:57;101765.19;;;15.57;100.00
58947;BME280;44724;52.332;4.978;2022-08-21T03:00:25;101765.50;;;15.56;100.00
58947;BME280;44724;52.332;4.978;2022-08-21T03:02:51;101762.47;;;15.52;100.00
58947;BME280;44724;52.332;4.978;2022-08-21T03:05:19;101762.78;;;15.51;100.00
58947;BME280;44724;52.332;4.978;2022-08-21T03:07:45;101761.13;;;15.50;100.00
58947;BME280;44724;52.332;4.978;2022-08-21T03:10:13;101755.63;;;15.45;100.00
58947;BME280;44724;52.332;4.978;2022-08-21T03:12:39;101757.06;;;15.42;100.00
58947;BME280;44724;52.332;4.978;2022-08-21T03:15:11;101758.47;;;15.39;100.00
58947;BME280;44724;52.332;4.978;2022-08-21T03:17:36;101752.69;;;15.36;100.00
58947;BME280;44724;52.332;4.978;2022-08-21T03:20:04;101751.84;;;15.35;100.00
58947;BME280;44724;52.332;4.978;2022-08-21T03:22:30;101754.94;;;15.34;100.00
58947;BME280;44724;52.332;4.978;2022-08-21T03:24:55;101743.50;;;15.35;100.00
58947;BME280;44724;52.332;4.978;2022-08-21T03:27:22;101747.97;;;15.31;100.00
58947;BME280;44724;52.332;4.978;2022-08-21T03:29:47;101746.94;;;15.27;100.00
58947;BME280;44724;52.332;4.978;2022-08-21T03:32:13;101740.53;;;15.27;100.00
58947;BME280;44724;52.332;4.978;2022-08-21T03:34:38;101732.19;;;15.27;100.00
58947;BME280;44724;52.332;4.978;2022-08-21T03:37:05;101731.94;;;15.23;100.00
58947;BME280;44724;52.332;4.978;2022-08-21T03:39:32;101733.59;;;15.24;100.00
58947;BME280;44724;52.332;4.978;2022-08-21T03:41:57;101744.44;;;15.26;100.00
58947;BME280;44724;52.332;4.978;2022-08-21T03:44:25;101744.75;;;15.24;100.00
58947;BME280;44724;52.332;4.978;2022-08-21T03:46:53;101750.63;;;15.23;100.00
58947;BME280;44724;52.332;4.978;2022-08-21T03:49:18;101765.16;;;15.19;100.00
58947;BME280;44724;52.332;4.978;2022-08-21T03:51:44;101753.50;;;15.17;100.00
58947;BME280;44724;52.332;4.978;2022-08-21T03:54:09;101758.84;;;15.14;100.00
58947;BME280;44724;52.332;4.978;2022-08-21T03:56:34;101750.47;;;15.14;100.00
58947;BME280;44724;52.332;4.978;2022-08-21T03:59:00;101751.88;;;15.11;100.00
58947;BME280;44724;52.332;4.978;2022-08-21T04:01:27;101768.91;;;15.10;100.00
58947;BME280;44724;52.332;4.978;2022-08-21T04:03:53;101759.41;;;15.11;100.00
58947;BME280;44724;52.332;4.978;2022-08-21T04:06:18;101760.00;;;15.08;100.00
58947;BME280;44724;52.332;4.978;2022-08-21T04:08:44;101765.88;;;15.06;100.00
58947;BME280;44724;52.332;4.978;2022-08-21T04:11:09;101770.09;;;15.04;100.00
58947;BME280;44724;52.332;4.978;2022-08-21T04:13:38;101767.03;;;15.05;100.00
58947;BME280;44724;52.332;4.978;2022-08-21T04:16:04;101768.66;;;15.06;100.00
58947;BME280;44724;52.332;4.978;2022-08-21T04:18:29;101777.31;;;15.05;100.00
58947;BME280;44724;52.332;4.978;2022-08-21T04:20:56;101775.38;;;15.05;100.00
58947;BME280;44724;52.332;4.978;2022-08-21T04:23:23;101780.66;;;15.07;100.00
58947;BME280;44724;52.332;4.978;2022-08-21T04:25:48;101771.75;;;15.05;100.00
58947;BME280;44724;52.332;4.978;2022-08-21T04:28:14;101778.75;;;15.02;100.00
58947;BME280;44724;52.332;4.978;2022-08-21T04:30:39;101775.16;;;15.01;100.00
58947;BME280;44724;52.332;4.978;2022-08-21T04:33:05;101777.31;;;15.05;100.00
58947;BME280;44724;52.332;4.978;2022-08-21T04:35:32;101783.75;;;15.05;100.00
58947;BME280;44724;52.332;4.978;2022-08-21T04:37:58;101777.88;;;15.07;100.00
58947;BME280;44724;52.332;4.978;2022-08-21T04:40:25;101780.91;;;15.10;100.00
58947;BME280;44724;52.332;4.978;2022-08-21T04:42:57;101777.81;;;15.12;100.00
58947;BME280;44724;52.332;4.978;2022-08-21T04:45:31;101771.63;;;15.15;100.00
58947;BME280;44724;52.332;4.978;2022-08-21T04:47:59;101769.69;;;15.15;100.00
58947;BME280;44724;52.332;4.978;2022-08-21T04:50:28;101764.63;;;15.17;100.00
58947;BME280;44724;52.332;4.978;2022-08-21T04:53:04;101773.28;;;15.16;100.00
58947;BME280;44724;52.332;4.978;2022-08-21T04:55:30;101772.72;;;15.19;100.00
58947;BME280;44724;52.332;4.978;2022-08-21T04:57:56;101767.66;;;15.21;100.00
58947;BME280;44724;52.332;4.978;2022-08-21T05:00:23;101756.75;;;15.25;100.00
58947;BME280;44724;52.332;4.978;2022-08-21T05:02:51;101759.75;;;15.28;100.00
58947;BME280;44724;52.332;4.978;2022-08-21T05:05:19;101758.63;;;15.29;100.00
58947;BME280;44724;52.332;4.978;2022-08-21T05:07:46;101756.91;;;15.33;100.00
58947;BME280;44724;52.332;4.978;2022-08-21T05:10:13;101746.28;;;15.35;100.00
58947;BME280;44724;52.332;4.978;2022-08-21T05:12:40;101741.22;;;15.37;100.00
58947;BME280;44724;52.332;4.978;2022-08-21T05:15:07;101737.53;;;15.42;100.00
58947;BME280;44724;52.332;4.978;2022-08-21T05:17:33;101737.22;;;15.44;100.00
58947;BME280;44724;52.332;4.978;2022-08-21T05:19:58;101737.78;;;15.46;100.00
58947;BME280;44724;52.332;4.978;2022-08-21T05:22:24;101736.84;;;15.50;100.00
58947;BME280;44724;52.332;4.978;2022-08-21T05:24:50;101739.28;;;15.57;100.00
58947;BME280;44724;52.332;4.978;2022-08-21T05:27:16;101736.72;;;15.61;100.00
58947;BME280;44724;52.332;4.978;2022-08-21T05:29:42;101735.25;;;15.63;100.00
58947;BME280;44724;52.332;4.978;2022-08-21T05:32:11;101743.56;;;15.68;100.00
58947;BME280;44724;52.332;4.978;2022-08-21T05:34:37;101745.75;;;15.71;100.00
58947;BME280;44724;52.332;4.978;2022-08-21T05:37:03;101742.41;;;15.74;100.00
58947;BME280;44724;52.332;4.978;2022-08-21T05:39:29;101742.91;;;15.76;100.00
58947;BME280;44724;52.332;4.978;2022-08-21T05:41:54;101745.34;;;15.83;100.00
58947;BME280;44724;52.332;4.978;2022-08-21T05:44:20;101744.81;;;15.81;100.00
58947;BME280;44724;52.332;4.978;2022-08-21T05:46:45;101741.91;;;15.86;100.00
58947;BME280;44724;52.332;4.978;2022-08-21T05:49:11;101739.03;;;15.91;100.00
58947;BME280;44724;52.332;4.978;2022-08-21T05:51:36;101737.53;;;15.99;100.00
58947;BME280;44724;52.332;4.978;2022-08-21T05:54:02;101733.50;;;16.05;100.00
58947;BME280;44724;52.332;4.978;2022-08-21T05:56:28;101731.25;;;16.07;100.00
58947;BME280;44724;52.332;4.978;2022-08-21T05:58:53;101728.59;;;16.16;100.00
58947;BME280;44724;52.332;4.978;2022-08-21T06:01:19;101731.88;;;16.18;100.00
58947;BME280;44724;52.332;4.978;2022-08-21T06:03:44;101728.19;;;16.23;100.00
58947;BME280;44724;52.332;4.978;2022-08-21T06:06:10;101726.88;;;16.34;100.00
58947;BME280;44724;52.332;4.978;2022-08-21T06:08:36;101714.47;;;16.40;100.00
58947;BME280;44724;52.332;4.978;2022-08-21T06:11:02;101715.50;;;16.44;100.00
58947;BME280;44724;52.332;4.978;2022-08-21T06:13:28;101708.56;;;16.56;100.00
58947;BME280;44724;52.332;4.978;2022-08-21T06:16:12;101708.47;;;16.61;100.00
58947;BME280;44724;52.332;4.978;2022-08-21T06:18:38;101711.47;;;16.64;100.00
58947;BME280;44724;52.332;4.978;2022-08-21T06:21:05;101715.97;;;16.79;100.00
58947;BME280;44724;52.332;4.978;2022-08-21T06:23:31;101711.31;;;16.88;100.00
58947;BME280;44724;52.332;4.978;2022-08-21T06:25:57;101701.25;;;16.87;100.00
58947;BME280;44724;52.332;4.978;2022-08-21T06:28:22;101711.13;;;16.99;100.00
58947;BME280;44724;52.332;4.978;2022-08-21T06:30:48;101701.97;;;17.07;100.00
58947;BME280;44724;52.332;4.978;2022-08-21T06:33:13;101706.31;;;17.13;100.00
58947;BME280;44724;52.332;4.978;2022-08-21T06:35:39;101707.53;;;17.21;100.00
58947;BME280;44724;52.332;4.978;2022-08-21T06:38:04;101705.47;;;17.26;100.00
58947;BME280;44724;52.332;4.978;2022-08-21T06:40:30;101698.81;;;17.36;100.00
58947;BME280;44724;52.332;4.978;2022-08-21T06:42:57;101695.72;;;17.38;100.00
58947;BME280;44724;52.332;4.978;2022-08-21T06:45:23;101692.81;;;17.43;100.00
58947;BME280;44724;52.332;4.978;2022-08-21T06:47:49;101693.19;;;17.50;100.00
58947;BME280;44724;52.332;4.978;2022-08-21T06:50:14;101695.09;;;17.63;100.00
58947;BME280;44724;52.332;4.978;2022-08-21T06:52:40;101695.34;;;17.76;100.00
58947;BME280;44724;52.332;4.978;2022-08-21T06:55:07;101695.31;;;17.90;100.00
58947;BME280;44724;52.332;4.978;2022-08-21T06:57:33;101690.16;;;18.05;100.00
58947;BME280;44724;52.332;4.978;2022-08-21T06:59:59;101695.38;;;18.21;100.00
58947;BME280;44724;52.332;4.978;2022-08-21T07:02:24;101685.84;;;18.31;100.00
58947;BME280;44724;52.332;4.978;2022-08-21T07:04:49;101684.94;;;18.44;100.00
58947;BME280;44724;52.332;4.978;2022-08-21T07:07:16;101690.56;;;18.53;100.00
58947;BME280;44724;52.332;4.978;2022-08-21T07:09:41;101693.44;;;18.70;100.00
58947;BME280;44724;52.332;4.978;2022-08-21T07:12:07;101682.06;;;18.75;100.00
58947;BME280;44724;52.332;4.978;2022-08-21T07:14:32;101688.25;;;18.95;100.00
58947;BME280;44724;52.332;4.978;2022-08-21T07:16:58;101685.50;;;19.12;100.00
58947;BME280;44724;52.332;4.978;2022-08-21T07:19:23;101690.28;;;19.12;100.00
58947;BME280;44724;52.332;4.978;2022-08-21T07:21:48;101682.88;;;19.25;100.00
58947;BME280;44724;52.332;4.978;2022-08-21T07:24:14;101691.13;;;19.30;100.00
58947;BME280;44724;52.332;4.978;2022-08-21T07:26:40;101687.16;;;19.31;100.00
58947;BME280;44724;52.332;4.978;2022-08-21T07:29:05;101687.50;;;19.47;100.00
58947;BME280;44724;52.332;4.978;2022-08-21T07:31:31;101679.56;;;19.57;100.00
58947;BME280;44724;52.332;4.978;2022-08-21T07:33:56;101684.22;;;19.80;100.00
58947;BME280;44724;52.332;4.978;2022-08-21T07:36:22;101681.59;;;19.83;100.00
58947;BME280;44724;52.332;4.978;2022-08-21T07:38:47;101683.53;;;19.91;100.00
58947;BME280;44724;52.332;4.978;2022-08-21T07:41:22;101678.09;;;19.95;100.00
58947;BME280;44724;52.332;4.978;2022-08-21T07:43:48;101678.91;;;20.04;100.00
58947;BME280;44724;52.332;4.978;2022-08-21T07:46:14;101673.56;;;20.20;100.00
58947;BME280;44724;52.332;4.978;2022-08-21T07:48:39;101680.31;;;20.28;100.00
58947;BME280;44724;52.332;4.978;2022-08-21T07:51:07;101676.50;;;20.32;100.00
58947;BME280;44724;52.332;4.978;2022-08-21T07:53:34;101678.97;;;20.34;100.00
58947;BME280;44724;52.332;4.978;2022-08-21T07:55:59;101678.91;;;20.51;100.00
58947;BME280;44724;52.332;4.978;2022-08-21T07:58:25;101664.81;;;20.60;100.00
58947;BME280;44724;52.332;4.978;2022-08-21T08:00:50;101667.50;;;20.48;100.00
58947;BME280;44724;52.332;4.978;2022-08-21T08:03:16;101673.72;;;20.71;100.00
58947;BME280;44724;52.332;4.978;2022-08-21T08:05:41;101670.00;;;20.88;100.00
58947;BME280;44724;52.332;4.978;2022-08-21T08:08:06;101675.22;;;20.98;100.00
58947;BME280;44724;52.332;4.978;2022-08-21T08:10:32;101676.28;;;21.15;100.00
58947;BME280;44724;52.332;4.978;2022-08-21T08:12:58;101663.44;;;21.26;100.00
58947;BME280;44724;52.332;4.978;2022-08-21T08:15:25;101661.00;;;21.45;100.00
58947;BME280;44724;52.332;4.978;2022-08-21T08:17:51;101657.81;;;21.26;100.00
58947;BME280;44724;52.332;4.978;2022-08-21T08:20:18;101664.06;;;21.74;100.00
58947;BME280;44724;52.332;4.978;2022-08-21T08:22:44;101654.88;;;21.98;100.00
58947;BME280;44724;52.332;4.978;2022-08-21T08:25:11;101657.22;;;21.96;100.00
58947;BME280;44724;52.332;4.978;2022-08-21T08:27:38;101653.13;;;22.06;100.00
58947;BME280;44724;52.332;4.978;2022-08-21T08:30:05;101652.41;;;21.96;100.00
58947;BME280;44724;52.332;4.978;2022-08-21T08:32:31;101661.19;;;21.95;100.00
58947;BME280;44724;52.332;4.978;2022-08-21T08:34:56;101653.22;;;21.97;100.00
58947;BME280;44724;52.332;4.978;2022-08-21T08:37:22;101649.38;;;21.68;100.00
58947;BME280;44724;52.332;4.978;2022-08-21T08:39:47;101654.94;;;21.56;100.00
58947;BME280;44724;52.332;4.978;2022-08-21T08:42:29;101647.72;;;21.46;100.00
58947;BME280;44724;52.332;4.978;2022-08-21T08:45:00;101652.88;;;21.65;100.00
58947;BME280;44724;52.332;4.978;2022-08-21T08:47:27;101643.41;;;22.15;100.00
58947;BME280;44724;52.332;4.978;2022-08-21T08:53:03;101625.69;;;22.89;100.00
58947;BME280;44724;52.332;4.978;2022-08-21T08:55:40;101622.88;;;22.89;100.00
58947;BME280;44724;52.332;4.978;2022-08-21T08:58:06;101618.53;;;22.67;100.00
58947;BME280;44724;52.332;4.978;2022-08-21T09:00:33;101617.00;;;22.82;100.00
58947;BME280;44724;52.332;4.978;2022-08-21T09:03:01;101617.47;;;22.71;100.00
58947;BME280;44724;52.332;4.978;2022-08-21T09:05:28;101622.75;;;22.97;100.00
58947;BME280;44724;52.332;4.978;2022-08-21T09:08:24;101613.03;;;23.23;100.00
58947;BME280;44724;52.332;4.978;2022-08-21T09:11:00;101612.16;;;23.07;100.00
58947;BME280;44724;52.332;4.978;2022-08-21T09:13:51;101615.19;;;23.14;100.00
58947;BME280;44724;52.332;4.978;2022-08-21T09:19:11;101622.66;;;22.82;100.00
58947;BME280;44724;52.332;4.978;2022-08-21T09:24:31;101626.66;;;22.56;100.00
58947;BME280;44724;52.332;4.978;2022-08-21T09:27:13;101638.03;;;22.47;100.00
58947;BME280;44724;52.332;4.978;2022-08-21T09:29:46;101634.75;;;22.33;100.00
58947;BME280;44724;52.332;4.978;2022-08-21T09:32:25;101631.22;;;22.36;100.00
58947;BME280;44724;52.332;4.978;2022-08-21T09:35:05;101627.59;;;22.60;100.00
58947;BME280;44724;52.332;4.978;2022-08-21T09:37:34;101626.28;;;22.57;100.00
58947;BME280;44724;52.332;4.978;2022-08-21T09:40:03;101632.28;;;22.68;100.00
58947;BME280;44724;52.332;4.978;2022-08-21T09:42:40;101629.56;;;22.84;100.00
58947;BME280;44724;52.332;4.978;2022-08-21T09:45:15;101618.09;;;23.30;100.00
58947;BME280;44724;52.332;4.978;2022-08-21T09:47:42;101613.50;;;23.53;100.00
58947;BME280;44724;52.332;4.978;2022-08-21T09:50:14;101610.47;;;23.75;100.00
58947;BME280;44724;52.332;4.978;2022-08-21T09:52:49;101612.66;;;23.65;100.00
58947;BME280;44724;52.332;4.978;2022-08-21T09:55:32;101602.09;;;23.78;100.00
58947;BME280;44724;52.332;4.978;2022-08-21T09:58:19;101606.19;;;23.65;100.00
58947;BME280;44724;52.332;4.978;2022-08-21T10:00:45;101601.84;;;23.83;100.00
58947;BME280;44724;52.332;4.978;2022-08-21T10:03:17;101604.81;;;24.03;100.00
58947;BME280;44724;52.332;4.978;2022-08-21T10:06:00;101615.28;;;24.02;100.00
58947;BME280;44724;52.332;4.978;2022-08-21T10:08:33;101600.81;;;24.20;100.00
58947;BME280;44724;52.332;4.978;2022-08-21T10:14:00;101606.81;;;24.18;100.00
58947;BME280;44724;52.332;4.978;2022-08-21T10:16:42;101616.38;;;24.14;100.00
58947;BME280;44724;52.332;4.978;2022-08-21T10:22:18;101598.31;;;24.66;100.00
58947;BME280;44724;52.332;4.978;2022-08-21T10:24:56;101591.59;;;25.10;100.00
58947;BME280;44724;52.332;4.978;2022-08-21T10:32:57;101584.53;;;25.00;100.00
58947;BME280;44724;52.332;4.978;2022-08-21T10:35:40;101585.75;;;24.83;100.00
58947;BME280;44724;52.332;4.978;2022-08-21T10:41:12;101588.91;;;24.30;100.00
58947;BME280;44724;52.332;4.978;2022-08-21T10:46:54;101581.00;;;24.20;100.00
58947;BME280;44724;52.332;4.978;2022-08-21T10:54:45;101576.94;;;25.23;100.00
58947;BME280;44724;52.332;4.978;2022-08-21T10:57:27;101572.16;;;25.47;100.00
58947;BME280;44724;52.332;4.978;2022-08-21T11:00:02;101571.16;;;25.78;100.00
58947;BME280;44724;52.332;4.978;2022-08-21T11:02:37;101570.91;;;25.87;100.00
58947;BME280;44724;52.332;4.978;2022-08-21T11:05:13;101565.09;;;25.37;100.00
58947;BME280;44724;52.332;4.978;2022-08-21T11:07:46;101571.84;;;25.13;100.00
58947;BME280;44724;52.332;4.978;2022-08-21T11:10:21;101575.97;;;25.55;100.00
58947;BME280;44724;52.332;4.978;2022-08-21T11:12:52;101574.59;;;26.11;100.00
58947;BME280;44724;52.332;4.978;2022-08-21T11:17:59;101580.41;;;25.75;100.00
58947;BME280;44724;52.332;4.978;2022-08-21T11:21:20;101574.66;;;25.72;100.00
58947;BME280;44724;52.332;4.978;2022-08-21T11:23:28;101573.28;;;25.62;100.00
58947;BME280;44724;52.332;4.978;2022-08-21T11:26:02;101573.50;;;25.53;100.00
58947;BME280;44724;52.332;4.978;2022-08-21T11:28:34;101573.31;;;25.42;100.00
58947;BME280;44724;52.332;4.978;2022-08-21T11:39:02;101580.81;;;25.35;100.00
58947;BME280;44724;52.332;4.978;2022-08-21T11:41:39;101584.25;;;25.64;100.00
58947;BME280;44724;52.332;4.978;2022-08-21T11:44:18;101596.72;;;25.82;100.00
58947;BME280;44724;52.332;4.978;2022-08-21T11:47:00;101591.66;;;25.72;100.00
58947;BME280;44724;52.332;4.978;2022-08-21T11:52:32;101593.75;;;26.17;100.00
58947;BME280;44724;52.332;4.978;2022-08-21T11:58:35;101589.97;;;26.10;100.00
58947;BME280;44724;52.332;4.978;2022-08-21T12:00:45;101593.91;;;25.82;100.00
58947;BME280;44724;52.332;4.978;2022-08-21T12:03:24;101589.41;;;25.81;100.00
58947;BME280;44724;52.332;4.978;2022-08-21T12:05:58;101591.88;;;25.83;100.00
58947;BME280;44724;52.332;4.978;2022-08-21T12:08:29;101597.75;;;25.93;100.00
58947;BME280;44724;52.332;4.978;2022-08-21T12:11:20;101597.16;;;26.04;100.00
58947;BME280;44724;52.332;4.978;2022-08-21T12:14:12;101599.41;;;25.94;100.00
58947;BME280;44724;52.332;4.978;2022-08-21T12:16:41;101593.13;;;26.05;100.00
58947;BME280;44724;52.332;4.978;2022-08-21T12:19:10;101595.00;;;26.20;100.00
58947;BME280;44724;52.332;4.978;2022-08-21T12:24:37;101600.19;;;25.52;100.00
58947;BME280;44724;52.332;4.978;2022-08-21T12:27:40;101601.34;;;25.28;100.00
58947;BME280;44724;52.332;4.978;2022-08-21T12:30:22;101605.59;;;25.38;100.00
58947;BME280;44724;52.332;4.978;2022-08-21T12:32:58;101602.13;;;25.68;100.00
58947;BME280;44724;52.332;4.978;2022-08-21T12:35:39;101608.00;;;25.78;100.00
58947;BME280;44724;52.332;4.978;2022-08-21T12:38:20;101600.19;;;25.72;100.00
58947;BME280;44724;52.332;4.978;2022-08-21T12:40:52;101604.78;;;25.99;100.00
58947;BME280;44724;52.332;4.978;2022-08-21T12:46:00;101611.31;;;26.04;100.00
58947;BME280;44724;52.332;4.978;2022-08-21T12:48:38;101605.38;;;25.89;100.00
58947;BME280;44724;52.332;4.978;2022-08-21T12:51:16;101612.50;;;26.03;100.00
58947;BME280;44724;52.332;4.978;2022-08-21T12:53:52;101612.50;;;26.03;100.00
58947;BME280;44724;52.332;4.978;2022-08-21T12:56:21;101613.34;;;26.03;100.00
58947;BME280;44724;52.332;4.978;2022-08-21T12:58:50;101607.47;;;26.39;98.26
58947;BME280;44724;52.332;4.978;2022-08-21T13:01:24;101612.97;;;26.28;98.71
58947;BME280;44724;52.332;4.978;2022-08-21T13:03:53;101611.47;;;25.91;100.00
58947;BME280;44724;52.332;4.978;2022-08-21T13:06:20;101616.69;;;25.66;100.00
58947;BME280;44724;52.332;4.978;2022-08-21T13:08:48;101616.59;;;25.63;100.00
58947;BME280;44724;52.332;4.978;2022-08-21T13:11:18;101615.72;;;25.58;100.00
58947;BME280;44724;52.332;4.978;2022-08-21T13:13:50;101621.63;;;25.30;100.00
58947;BME280;44724;52.332;4.978;2022-08-21T13:16:23;101612.88;;;25.19;100.00
58947;BME280;44724;52.332;4.978;2022-08-21T13:18:56;101618.34;;;25.28;100.00
58947;BME280;44724;52.332;4.978;2022-08-21T13:21:35;101616.03;;;25.34;100.00
58947;BME280;44724;52.332;4.978;2022-08-21T13:24:17;101613.03;;;25.46;100.00
58947;BME280;44724;52.332;4.978;2022-08-21T13:26:42;101608.25;;;25.50;100.00
58947;BME280;44724;52.332;4.978;2022-08-21T13:29:14;101609.44;;;25.49;100.00
58947;BME280;44724;52.332;4.978;2022-08-21T13:31:49;101609.59;;;25.37;100.00
58947;BME280;44724;52.332;4.978;2022-08-21T13:34:19;101610.59;;;25.45;100.00
58947;BME280;44724;52.332;4.978;2022-08-21T13:36:46;101608.94;;;25.43;100.00
58947;BME280;44724;52.332;4.978;2022-08-21T13:39:15;101623.06;;;25.24;100.00
58947;BME280;44724;52.332;4.978;2022-08-21T13:41:45;101615.69;;;25.19;100.00
58947;BME280;44724;52.332;4.978;2022-08-21T13:44:35;101619.16;;;25.29;100.00
58947;BME280;44724;52.332;4.978;2022-08-21T13:47:03;101614.03;;;25.18;100.00